sensor_id;sensor_type;location;lat;lon;timestamp;P1;durP1;ratioP1;P2;durP2;ratioP2
15295;SDS011;7749;49.964;7.890;2023-07-22T00:00:00;3.50;;;3.20;;
15295;SDS011;7749;49.964;7.890;2023-07-22T00:02:27;4.20;;;3.77;;
15295;SDS011;7749;49.964;7.890;2023-07-22T00:04:56;4.53;;;3.40;;
15295;SDS011;7749;49.964;7.890;2023-07-22T00:07:24;4.87;;;3.83;;
15295;SDS011;7749;49.964;7.890;2023-07-22T00:09:51;4.07;;;3.30;;
15295;SDS011;7749;49.964;7.890;2023-07-22T00:12:19;3.50;;;3.20;;
15295;SDS011;7749;49.964;7.890;2023-07-22T00:14:46;4.10;;;3.45;;
15295;SDS011;7749;49.964;7.890;2023-07-22T00:17:14;5.53;;;3.27;;
15295;SDS011;7749;49.964;7.890;2023-07-22T00:19:41;4.77;;;3.67;;
15295;SDS011;7749;49.964;7.890;2023-07-22T00:22:09;4.00;;;3.63;;
15295;SDS011;7749;49.964;7.890;2023-07-22T00:24:36;3.90;;;3.60;;
15295;SDS011;7749;49.964;7.890;2023-07-22T00:27:04;3.73;;;3.37;;
15295;SDS011;7749;49.964;7.890;2023-07-22T00:29:34;3.57;;;3.27;;
15295;SDS011;7749;49.964;7.890;2023-07-22T00:32:02;3.53;;;3.23;;
15295;SDS011;7749;49.964;7.890;2023-07-22T00:34:34;3.43;;;3.13;;
15295;SDS011;7749;49.964;7.890;2023-07-22T00:37:02;4.67;;;3.70;;
15295;SDS011;7749;49.964;7.890;2023-07-22T00:39:29;4.53;;;3.90;;
15295;SDS011;7749;49.964;7.890;2023-07-22T00:41:57;7.17;;;3.80;;
15295;SDS011;7749;49.964;7.890;2023-07-22T00:44:24;3.50;;;3.20;;
15295;SDS011;7749;49.964;7.890;2023-07-22T00:46:55;3.60;;;3.30;;
15295;SDS011;7749;49.964;7.890;2023-07-22T00:49:25;4.53;;;3.60;;
15295;SDS011;7749;49.964;7.890;2023-07-22T00:51:53;4.80;;;3.80;;
15295;SDS011;7749;49.964;7.890;2023-07-22T00:54:20;5.83;;;3.60;;
15295;SDS011;7749;49.964;7.890;2023-07-22T00:56:48;4.20;;;3.80;;
15295;SDS011;7749;49.964;7.890;2023-07-22T00:59:16;4.23;;;3.83;;
15295;SDS011;7749;49.964;7.890;2023-07-22T01:01:43;4.10;;;3.70;;
15295;SDS011;7749;49.964;7.890;2023-07-22T01:04:13;4.50;;;4.10;;
15295;SDS011;7749;49.964;7.890;2023-07-22T01:06:42;4.80;;;3.80;;
15295;SDS011;7749;49.964;7.890;2023-07-22T01:09:11;4.00;;;3.60;;
15295;SDS011;7749;49.964;7.890;2023-07-22T01:11:38;4.03;;;3.60;;
15295;SDS011;7749;49.964;7.890;2023-07-22T01:14:06;3.97;;;3.67;;
15295;SDS011;7749;49.964;7.890;2023-07-22T01:16:34;3.87;;;3.53;;
15295;SDS011;7749;49.964;7.890;2023-07-22T01:19:03;5.20;;;3.80;;
15295;SDS011;7749;49.964;7.890;2023-07-22T01:21:31;5.13;;;3.67;;
15295;SDS011;7749;49.964;7.890;2023-07-22T01:23:59;4.00;;;3.70;;
15295;SDS011;7749;49.964;7.890;2023-07-22T01:26:28;4.80;;;3.43;;
15295;SDS011;7749;49.964;7.890;2023-07-22T01:29:04;4.17;;;3.87;;
15295;SDS011;7749;49.964;7.890;2023-07-22T01:31:35;4.27;;;3.60;;
15295;SDS011;7749;49.964;7.890;2023-07-22T01:34:05;4.90;;;3.50;;
15295;SDS011;7749;49.964;7.890;2023-07-22T01:36:32;4.80;;;4.40;;
15295;SDS011;7749;49.964;7.890;2023-07-22T01:39:00;4.23;;;3.87;;
15295;SDS011;7749;49.964;7.890;2023-07-22T01:41:27;4.50;;;4.10;;
15295;SDS011;7749;49.964;7.890;2023-07-22T01:43:55;4.03;;;3.70;;
15295;SDS011;7749;49.964;7.890;2023-07-22T01:46:22;4.40;;;4.00;;
15295;SDS011;7749;49.964;7.890;2023-07-22T01:48:50;4.37;;;3.97;;
15295;SDS011;7749;49.964;7.890;2023-07-22T01:51:17;4.90;;;4.40;;
15295;SDS011;7749;49.964;7.890;2023-07-22T01:53:45;4.40;;;4.00;;
15295;SDS011;7749;49.964;7.890;2023-07-22T01:56:12;4.87;;;4.20;;
15295;SDS011;7749;49.964;7.890;2023-07-22T01:58:40;3.93;;;3.63;;
15295;SDS011;7749;49.964;7.890;2023-07-22T02:01:07;4.47;;;3.80;;
15295;SDS011;7749;49.964;7.890;2023-07-22T02:03:35;6.17;;;3.70;;
15295;SDS011;7749;49.964;7.890;2023-07-22T02:06:03;4.37;;;4.00;;
15295;SDS011;7749;49.964;7.890;2023-07-22T02:08:31;5.60;;;4.60;;
15295;SDS011;7749;49.964;7.890;2023-07-22T02:11:02;5.00;;;4.47;;
15295;SDS011;7749;49.964;7.890;2023-07-22T02:13:33;4.83;;;4.43;;
15295;SDS011;7749;49.964;7.890;2023-07-22T02:16:02;5.23;;;4.73;;
15295;SDS011;7749;49.964;7.890;2023-07-22T02:18:30;5.47;;;4.97;;
15295;SDS011;7749;49.964;7.890;2023-07-22T02:20:58;5.40;;;5.00;;
15295;SDS011;7749;49.964;7.890;2023-07-22T02:23:25;4.40;;;4.00;;
15295;SDS011;7749;49.964;7.890;2023-07-22T02:25:53;5.93;;;5.20;;
15295;SDS011;7749;49.964;7.890;2023-07-22T02:28:21;4.90;;;4.43;;
15295;SDS011;7749;49.964;7.890;2023-07-22T02:30:51;7.63;;;4.77;;
15295;SDS011;7749;49.964;7.890;2023-07-22T02:33:19;5.07;;;4.40;;
15295;SDS011;7749;49.964;7.890;2023-07-22T02:35:51;6.33;;;4.83;;
15295;SDS011;7749;49.964;7.890;2023-07-22T02:38:18;5.10;;;4.57;;
15295;SDS011;7749;49.964;7.890;2023-07-22T02:40:46;5.10;;;4.60;;
15295;SDS011;7749;49.964;7.890;2023-07-22T02:43:13;4.80;;;4.40;;
15295;SDS011;7749;49.964;7.890;2023-07-22T02:45:42;5.43;;;4.50;;
15295;SDS011;7749;49.964;7.890;2023-07-22T02:48:09;5.67;;;4.60;;
15295;SDS011;7749;49.964;7.890;2023-07-22T02:50:37;5.40;;;4.90;;
15295;SDS011;7749;49.964;7.890;2023-07-22T02:53:04;6.83;;;4.73;;
15295;SDS011;7749;49.964;7.890;2023-07-22T02:55:32;5.50;;;4.50;;
15295;SDS011;7749;49.964;7.890;2023-07-22T02:58:00;5.37;;;4.87;;
15295;SDS011;7749;49.964;7.890;2023-07-22T03:00:27;6.33;;;4.63;;
15295;SDS011;7749;49.964;7.890;2023-07-22T03:02:55;4.40;;;4.00;;
15295;SDS011;7749;49.964;7.890;2023-07-22T03:05:29;5.50;;;4.83;;
15295;SDS011;7749;49.964;7.890;2023-07-22T03:07:58;5.13;;;4.60;;
15295;SDS011;7749;49.964;7.890;2023-07-22T03:10:25;6.17;;;4.60;;
15295;SDS011;7749;49.964;7.890;2023-07-22T03:12:55;8.50;;;5.07;;
15295;SDS011;7749;49.964;7.890;2023-07-22T03:15:23;5.70;;;4.50;;
15295;SDS011;7749;49.964;7.890;2023-07-22T03:17:53;5.03;;;4.50;;
15295;SDS011;7749;49.964;7.890;2023-07-22T03:20:22;4.97;;;4.57;;
15295;SDS011;7749;49.964;7.890;2023-07-22T03:22:51;5.10;;;4.70;;
15295;SDS011;7749;49.964;7.890;2023-07-22T03:25:19;8.00;;;5.20;;
15295;SDS011;7749;49.964;7.890;2023-07-22T03:27:47;5.67;;;5.17;;
15295;SDS011;7749;49.964;7.890;2023-07-22T03:30:15;5.83;;;5.00;;
15295;SDS011;7749;49.964;7.890;2023-07-22T03:32:45;6.50;;;5.33;;
15295;SDS011;7749;49.964;7.890;2023-07-22T03:35:19;5.20;;;4.80;;
15295;SDS011;7749;49.964;7.890;2023-07-22T03:37:47;5.33;;;4.83;;
15295;SDS011;7749;49.964;7.890;2023-07-22T03:40:14;6.33;;;5.03;;
15295;SDS011;7749;49.964;7.890;2023-07-22T03:43:02;6.77;;;5.00;;
15295;SDS011;7749;49.964;7.890;2023-07-22T03:45:30;6.23;;;5.13;;
15295;SDS011;7749;49.964;7.890;2023-07-22T03:47:58;5.70;;;5.20;;
15295;SDS011;7749;49.964;7.890;2023-07-22T03:50:27;6.33;;;4.80;;
15295;SDS011;7749;49.964;7.890;2023-07-22T03:52:55;5.70;;;5.20;;
15295;SDS011;7749;49.964;7.890;2023-07-22T03:55:23;4.83;;;4.37;;
15295;SDS011;7749;49.964;7.890;2023-07-22T03:57:50;5.83;;;4.87;;
15295;SDS011;7749;49.964;7.890;2023-07-22T04:00:18;5.20;;;4.70;;
15295;SDS011;7749;49.964;7.890;2023-07-22T04:02:46;5.97;;;4.60;;
15295;SDS011;7749;49.964;7.890;2023-07-22T04:05:14;5.43;;;4.93;;
15295;SDS011;7749;49.964;7.890;2023-07-22T04:07:41;5.93;;;5.30;;
15295;SDS011;7749;49.964;7.890;2023-07-22T04:10:11;6.50;;;5.53;;
15295;SDS011;7749;49.964;7.890;2023-07-22T04:12:39;6.93;;;5.40;;
15295;SDS011;7749;49.964;7.890;2023-07-22T04:15:09;5.97;;;5.43;;
15295;SDS011;7749;49.964;7.890;2023-07-22T04:17:36;5.73;;;5.10;;
15295;SDS011;7749;49.964;7.890;2023-07-22T04:20:04;6.30;;;5.70;;
15295;SDS011;7749;49.964;7.890;2023-07-22T04:22:34;6.13;;;5.30;;
15295;SDS011;7749;49.964;7.890;2023-07-22T04:25:01;5.40;;;4.90;;
15295;SDS011;7749;49.964;7.890;2023-07-22T04:27:29;5.93;;;4.87;;
15295;SDS011;7749;49.964;7.890;2023-07-22T04:29:57;4.93;;;4.53;;
15295;SDS011;7749;49.964;7.890;2023-07-22T04:32:24;6.77;;;5.20;;
15295;SDS011;7749;49.964;7.890;2023-07-22T04:34:51;5.73;;;4.80;;
15295;SDS011;7749;49.964;7.890;2023-07-22T04:37:19;5.33;;;4.73;;
15295;SDS011;7749;49.964;7.890;2023-07-22T04:39:48;6.10;;;5.10;;
15295;SDS011;7749;49.964;7.890;2023-07-22T04:42:16;5.63;;;4.63;;
15295;SDS011;7749;49.964;7.890;2023-07-22T04:44:44;4.53;;;4.03;;
15295;SDS011;7749;49.964;7.890;2023-07-22T04:47:11;4.63;;;4.20;;
15295;SDS011;7749;49.964;7.890;2023-07-22T04:49:39;4.50;;;4.17;;
15295;SDS011;7749;49.964;7.890;2023-07-22T04:52:06;4.93;;;4.43;;
15295;SDS011;7749;49.964;7.890;2023-07-22T04:54:34;5.53;;;4.53;;
15295;SDS011;7749;49.964;7.890;2023-07-22T04:57:02;4.43;;;4.03;;
15295;SDS011;7749;49.964;7.890;2023-07-22T04:59:30;4.63;;;4.23;;
15295;SDS011;7749;49.964;7.890;2023-07-22T05:01:57;4.57;;;4.17;;
15295;SDS011;7749;49.964;7.890;2023-07-22T05:04:25;4.13;;;3.73;;
15295;SDS011;7749;49.964;7.890;2023-07-22T05:06:52;4.57;;;4.10;;
15295;SDS011;7749;49.964;7.890;2023-07-22T05:09:20;5.37;;;4.70;;
15295;SDS011;7749;49.964;7.890;2023-07-22T05:11:47;7.33;;;4.70;;
15295;SDS011;7749;49.964;7.890;2023-07-22T05:14:15;5.43;;;4.27;;
15295;SDS011;7749;49.964;7.890;2023-07-22T05:16:42;4.40;;;4.07;;
15295;SDS011;7749;49.964;7.890;2023-07-22T05:19:10;4.23;;;3.80;;
15295;SDS011;7749;49.964;7.890;2023-07-22T05:21:37;4.57;;;3.67;;
15295;SDS011;7749;49.964;7.890;2023-07-22T05:24:05;4.43;;;3.97;;
15295;SDS011;7749;49.964;7.890;2023-07-22T05:26:32;4.60;;;4.20;;
15295;SDS011;7749;49.964;7.890;2023-07-22T05:29:00;4.37;;;3.97;;
15295;SDS011;7749;49.964;7.890;2023-07-22T05:31:27;4.77;;;4.27;;
15295;SDS011;7749;49.964;7.890;2023-07-22T05:33:55;6.07;;;4.33;;
15295;SDS011;7749;49.964;7.890;2023-07-22T05:36:22;4.10;;;3.80;;
15295;SDS011;7749;49.964;7.890;2023-07-22T05:38:50;5.43;;;4.20;;
15295;SDS011;7749;49.964;7.890;2023-07-22T05:41:17;4.37;;;4.03;;
15295;SDS011;7749;49.964;7.890;2023-07-22T05:43:45;4.10;;;3.67;;
15295;SDS011;7749;49.964;7.890;2023-07-22T05:46:12;4.27;;;3.97;;
15295;SDS011;7749;49.964;7.890;2023-07-22T05:48:41;3.93;;;3.53;;
15295;SDS011;7749;49.964;7.890;2023-07-22T05:51:09;5.03;;;4.00;;
15295;SDS011;7749;49.964;7.890;2023-07-22T05:53:36;3.63;;;3.33;;
15295;SDS011;7749;49.964;7.890;2023-07-22T05:56:04;3.80;;;3.50;;
15295;SDS011;7749;49.964;7.890;2023-07-22T05:58:31;4.10;;;3.70;;
15295;SDS011;7749;49.964;7.890;2023-07-22T06:00:59;5.75;;;3.80;;
15295;SDS011;7749;49.964;7.890;2023-07-22T06:03:27;5.03;;;3.67;;
15295;SDS011;7749;49.964;7.890;2023-07-22T06:05:56;6.28;;;3.92;;
15295;SDS011;7749;49.964;7.890;2023-07-22T06:08:23;4.30;;;3.67;;
15295;SDS011;7749;49.964;7.890;2023-07-22T06:10:52;3.95;;;3.63;;
15295;SDS011;7749;49.964;7.890;2023-07-22T06:13:20;4.13;;;3.67;;
15295;SDS011;7749;49.964;7.890;2023-07-22T06:15:47;4.33;;;3.93;;
15295;SDS011;7749;49.964;7.890;2023-07-22T06:18:15;4.45;;;3.80;;
15295;SDS011;7749;49.964;7.890;2023-07-22T06:20:43;4.53;;;4.10;;
15295;SDS011;7749;49.964;7.890;2023-07-22T06:23:10;3.80;;;3.40;;
15295;SDS011;7749;49.964;7.890;2023-07-22T06:25:38;6.63;;;3.72;;
15295;SDS011;7749;49.964;7.890;2023-07-22T06:28:05;4.47;;;3.90;;
15295;SDS011;7749;49.964;7.890;2023-07-22T06:30:33;4.53;;;4.03;;
15295;SDS011;7749;49.964;7.890;2023-07-22T06:33:01;5.07;;;4.13;;
15295;SDS011;7749;49.964;7.890;2023-07-22T06:35:28;4.30;;;3.67;;
15295;SDS011;7749;49.964;7.890;2023-07-22T06:37:56;4.38;;;3.72;;
15295;SDS011;7749;49.964;7.890;2023-07-22T06:40:24;3.85;;;3.55;;
15295;SDS011;7749;49.964;7.890;2023-07-22T06:42:52;3.50;;;3.17;;
15295;SDS011;7749;49.964;7.890;2023-07-22T06:45:19;6.70;;;3.75;;
15295;SDS011;7749;49.964;7.890;2023-07-22T06:47:47;3.88;;;3.47;;
15295;SDS011;7749;49.964;7.890;2023-07-22T06:50:14;4.90;;;4.20;;
15295;SDS011;7749;49.964;7.890;2023-07-22T06:52:42;4.45;;;4.05;;
15295;SDS011;7749;49.964;7.890;2023-07-22T06:55:09;5.80;;;4.07;;
15295;SDS011;7749;49.964;7.890;2023-07-22T06:57:38;5.22;;;4.30;;
15295;SDS011;7749;49.964;7.890;2023-07-22T07:00:05;4.70;;;4.28;;
15295;SDS011;7749;49.964;7.890;2023-07-22T07:02:33;6.60;;;4.32;;
15295;SDS011;7749;49.964;7.890;2023-07-22T07:05:01;4.97;;;4.47;;
15295;SDS011;7749;49.964;7.890;2023-07-22T07:07:29;5.35;;;4.65;;
15295;SDS011;7749;49.964;7.890;2023-07-22T07:09:56;4.75;;;4.00;;
15295;SDS011;7749;49.964;7.890;2023-07-22T07:12:23;4.93;;;4.20;;
15295;SDS011;7749;49.964;7.890;2023-07-22T07:14:51;4.75;;;4.10;;
15295;SDS011;7749;49.964;7.890;2023-07-22T07:17:19;4.60;;;4.03;;
15295;SDS011;7749;49.964;7.890;2023-07-22T07:19:47;4.90;;;3.67;;
15295;SDS011;7749;49.964;7.890;2023-07-22T07:22:15;4.18;;;3.85;;
15295;SDS011;7749;49.964;7.890;2023-07-22T07:24:43;4.55;;;3.90;;
15295;SDS011;7749;49.964;7.890;2023-07-22T07:27:10;4.50;;;4.10;;
15295;SDS011;7749;49.964;7.890;2023-07-22T07:29:38;4.53;;;3.88;;
15295;SDS011;7749;49.964;7.890;2023-07-22T07:32:20;6.05;;;3.60;;
15295;SDS011;7749;49.964;7.890;2023-07-22T07:34:48;4.20;;;3.80;;
15295;SDS011;7749;49.964;7.890;2023-07-22T07:37:15;4.63;;;3.95;;
15295;SDS011;7749;49.964;7.890;2023-07-22T07:39:43;4.28;;;3.55;;
15295;SDS011;7749;49.964;7.890;2023-07-22T07:42:10;5.07;;;3.47;;
15295;SDS011;7749;49.964;7.890;2023-07-22T07:44:38;4.68;;;3.80;;
15295;SDS011;7749;49.964;7.890;2023-07-22T07:47:05;3.40;;;3.10;;
15295;SDS011;7749;49.964;7.890;2023-07-22T07:49:33;3.55;;;3.25;;
15295;SDS011;7749;49.964;7.890;2023-07-22T07:52:00;4.30;;;3.30;;
15295;SDS011;7749;49.964;7.890;2023-07-22T07:54:29;3.58;;;3.28;;
15295;SDS011;7749;49.964;7.890;2023-07-22T07:57:06;3.72;;;3.42;;
15295;SDS011;7749;49.964;7.890;2023-07-22T07:59:33;4.60;;;3.35;;
15295;SDS011;7749;49.964;7.890;2023-07-22T08:02:05;4.00;;;3.53;;
15295;SDS011;7749;49.964;7.890;2023-07-22T08:04:36;3.70;;;3.30;;
15295;SDS011;7749;49.964;7.890;2023-07-22T08:07:05;3.65;;;3.30;;
15295;SDS011;7749;49.964;7.890;2023-07-22T08:09:33;3.22;;;2.90;;
15295;SDS011;7749;49.964;7.890;2023-07-22T08:12:01;3.92;;;3.42;;
15295;SDS011;7749;49.964;7.890;2023-07-22T08:14:30;3.58;;;3.03;;
15295;SDS011;7749;49.964;7.890;2023-07-22T08:16:57;4.15;;;3.30;;
15295;SDS011;7749;49.964;7.890;2023-07-22T08:19:25;3.92;;;3.17;;
15295;SDS011;7749;49.964;7.890;2023-07-22T08:21:54;6.47;;;5.18;;
15295;SDS011;7749;49.964;7.890;2023-07-22T08:24:22;4.97;;;3.10;;
15295;SDS011;7749;49.964;7.890;2023-07-22T08:26:50;4.40;;;3.20;;
15295;SDS011;7749;49.964;7.890;2023-07-22T08:29:17;3.28;;;2.97;;
15295;SDS011;7749;49.964;7.890;2023-07-22T08:31:44;4.95;;;3.28;;
15295;SDS011;7749;49.964;7.890;2023-07-22T08:34:12;3.75;;;3.00;;
15295;SDS011;7749;49.964;7.890;2023-07-22T08:36:39;3.58;;;3.25;;
15295;SDS011;7749;49.964;7.890;2023-07-22T08:39:07;3.30;;;2.97;;
15295;SDS011;7749;49.964;7.890;2023-07-22T08:41:35;3.22;;;2.92;;
15295;SDS011;7749;49.964;7.890;2023-07-22T08:44:04;3.58;;;2.85;;
15295;SDS011;7749;49.964;7.890;2023-07-22T08:46:35;3.63;;;3.10;;
15295;SDS011;7749;49.964;7.890;2023-07-22T08:49:03;5.18;;;3.00;;
15295;SDS011;7749;49.964;7.890;2023-07-22T08:51:32;4.50;;;4.05;;
15295;SDS011;7749;49.964;7.890;2023-07-22T08:54:00;3.80;;;3.00;;
15295;SDS011;7749;49.964;7.890;2023-07-22T08:56:38;3.25;;;2.88;;
15295;SDS011;7749;49.964;7.890;2023-07-22T08:59:06;3.47;;;3.17;;
15295;SDS011;7749;49.964;7.890;2023-07-22T09:01:34;4.65;;;2.67;;
15295;SDS011;7749;49.964;7.890;2023-07-22T09:04:03;3.45;;;2.85;;
15295;SDS011;7749;49.964;7.890;2023-07-22T09:06:31;4.40;;;3.38;;
15295;SDS011;7749;49.964;7.890;2023-07-22T09:09:00;6.57;;;4.00;;
15295;SDS011;7749;49.964;7.890;2023-07-22T09:11:31;3.10;;;2.90;;
15295;SDS011;7749;49.964;7.890;2023-07-22T09:13:59;5.97;;;3.20;;
15295;SDS011;7749;49.964;7.890;2023-07-22T09:16:28;3.25;;;2.90;;
15295;SDS011;7749;49.964;7.890;2023-07-22T09:18:58;4.28;;;3.00;;
15295;SDS011;7749;49.964;7.890;2023-07-22T09:21:26;3.40;;;3.10;;
15295;SDS011;7749;49.964;7.890;2023-07-22T09:23:55;5.93;;;3.55;;
15295;SDS011;7749;49.964;7.890;2023-07-22T09:26:22;3.78;;;2.88;;
15295;SDS011;7749;49.964;7.890;2023-07-22T09:28:53;4.05;;;2.65;;
15295;SDS011;7749;49.964;7.890;2023-07-22T09:31:22;4.65;;;2.97;;
15295;SDS011;7749;49.964;7.890;2023-07-22T09:33:51;3.95;;;3.58;;
15295;SDS011;7749;49.964;7.890;2023-07-22T09:36:22;4.78;;;3.22;;
15295;SDS011;7749;49.964;7.890;2023-07-22T09:39:00;4.13;;;3.20;;
15295;SDS011;7749;49.964;7.890;2023-07-22T09:41:31;3.55;;;3.25;;
15295;SDS011;7749;49.964;7.890;2023-07-22T09:44:02;3.70;;;3.40;;
15295;SDS011;7749;49.964;7.890;2023-07-22T09:46:33;4.55;;;3.40;;
15295;SDS011;7749;49.964;7.890;2023-07-22T09:49:02;4.82;;;3.50;;
15295;SDS011;7749;49.964;7.890;2023-07-22T09:51:34;5.20;;;3.85;;
15295;SDS011;7749;49.964;7.890;2023-07-22T09:54:22;4.07;;;3.60;;
15295;SDS011;7749;49.964;7.890;2023-07-22T09:56:56;5.03;;;3.53;;
15295;SDS011;7749;49.964;7.890;2023-07-22T09:59:23;4.18;;;3.60;;
15295;SDS011;7749;49.964;7.890;2023-07-22T10:01:55;6.28;;;3.55;;
15295;SDS011;7749;49.964;7.890;2023-07-22T10:04:25;3.63;;;3.08;;
15295;SDS011;7749;49.964;7.890;2023-07-22T10:06:58;5.13;;;3.33;;
15295;SDS011;7749;49.964;7.890;2023-07-22T10:09:27;3.88;;;3.33;;
15295;SDS011;7749;49.964;7.890;2023-07-22T10:11:56;3.90;;;3.35;;
15295;SDS011;7749;49.964;7.890;2023-07-22T10:14:25;3.67;;;3.10;;
15295;SDS011;7749;49.964;7.890;2023-07-22T10:16:56;4.65;;;3.50;;
15295;SDS011;7749;49.964;7.890;2023-07-22T10:19:26;3.47;;;3.17;;
15295;SDS011;7749;49.964;7.890;2023-07-22T10:21:53;3.70;;;3.40;;
15295;SDS011;7749;49.964;7.890;2023-07-22T10:24:21;4.20;;;3.58;;
15295;SDS011;7749;49.964;7.890;2023-07-22T10:26:49;3.47;;;3.17;;
15295;SDS011;7749;49.964;7.890;2023-07-22T10:29:18;3.95;;;3.40;;
15295;SDS011;7749;49.964;7.890;2023-07-22T10:31:47;4.82;;;4.10;;
15295;SDS011;7749;49.964;7.890;2023-07-22T10:34:21;3.65;;;3.33;;
15295;SDS011;7749;49.964;7.890;2023-07-22T10:36:49;5.15;;;3.88;;
15295;SDS011;7749;49.964;7.890;2023-07-22T10:39:26;5.03;;;3.10;;
15295;SDS011;7749;49.964;7.890;2023-07-22T10:42:04;5.82;;;3.65;;
15295;SDS011;7749;49.964;7.890;2023-07-22T10:44:35;3.50;;;3.20;;
15295;SDS011;7749;49.964;7.890;2023-07-22T10:47:05;3.50;;;3.17;;
15295;SDS011;7749;49.964;7.890;2023-07-22T10:49:44;4.15;;;3.60;;
15295;SDS011;7749;49.964;7.890;2023-07-22T10:52:13;3.80;;;3.25;;
15295;SDS011;7749;49.964;7.890;2023-07-22T10:54:41;3.45;;;3.15;;
15295;SDS011;7749;49.964;7.890;2023-07-22T10:59:51;3.47;;;3.17;;
15295;SDS011;7749;49.964;7.890;2023-07-22T11:02:26;4.63;;;3.60;;
15295;SDS011;7749;49.964;7.890;2023-07-22T11:04:58;7.30;;;3.25;;
15295;SDS011;7749;49.964;7.890;2023-07-22T11:07:30;4.53;;;3.20;;
15295;SDS011;7749;49.964;7.890;2023-07-22T11:10:10;3.67;;;3.38;;
15295;SDS011;7749;49.964;7.890;2023-07-22T11:12:39;4.32;;;3.33;;
15295;SDS011;7749;49.964;7.890;2023-07-22T11:15:09;5.85;;;3.70;;
15295;SDS011;7749;49.964;7.890;2023-07-22T11:17:37;3.92;;;3.30;;
15295;SDS011;7749;49.964;7.890;2023-07-22T11:20:04;4.65;;;3.60;;
15295;SDS011;7749;49.964;7.890;2023-07-22T11:22:32;4.68;;;3.60;;
15295;SDS011;7749;49.964;7.890;2023-07-22T11:25:00;3.80;;;3.40;;
15295;SDS011;7749;49.964;7.890;2023-07-22T11:27:28;6.13;;;3.63;;
15295;SDS011;7749;49.964;7.890;2023-07-22T11:29:57;3.85;;;3.10;;
15295;SDS011;7749;49.964;7.890;2023-07-22T11:32:25;3.85;;;3.45;;
15295;SDS011;7749;49.964;7.890;2023-07-22T11:34:53;4.97;;;3.53;;
15295;SDS011;7749;49.964;7.890;2023-07-22T11:37:20;3.63;;;3.33;;
15295;SDS011;7749;49.964;7.890;2023-07-22T11:39:48;4.22;;;3.08;;
15295;SDS011;7749;49.964;7.890;2023-07-22T11:42:15;3.95;;;3.40;;
15295;SDS011;7749;49.964;7.890;2023-07-22T11:44:43;3.33;;;3.03;;
15295;SDS011;7749;49.964;7.890;2023-07-22T11:47:11;3.05;;;2.75;;
15295;SDS011;7749;49.964;7.890;2023-07-22T11:49:39;3.90;;;3.10;;
15295;SDS011;7749;49.964;7.890;2023-07-22T11:52:09;3.28;;;2.97;;
15295;SDS011;7749;49.964;7.890;2023-07-22T11:54:42;4.03;;;3.28;;
15295;SDS011;7749;49.964;7.890;2023-07-22T11:57:16;4.28;;;3.28;;
15295;SDS011;7749;49.964;7.890;2023-07-22T11:59:53;3.58;;;2.95;;
15295;SDS011;7749;49.964;7.890;2023-07-22T12:02:26;3.67;;;2.95;;
15295;SDS011;7749;49.964;7.890;2023-07-22T12:05:02;3.65;;;3.17;;
15295;SDS011;7749;49.964;7.890;2023-07-22T12:07:32;4.32;;;2.65;;
15295;SDS011;7749;49.964;7.890;2023-07-22T12:10:05;3.80;;;3.40;;
15295;SDS011;7749;49.964;7.890;2023-07-22T12:12:34;3.53;;;2.95;;
15295;SDS011;7749;49.964;7.890;2023-07-22T12:15:08;4.55;;;2.80;;
15295;SDS011;7749;49.964;7.890;2023-07-22T12:17:43;3.08;;;2.80;;
15295;SDS011;7749;49.964;7.890;2023-07-22T12:20:23;3.30;;;2.90;;
15295;SDS011;7749;49.964;7.890;2023-07-22T12:22:53;4.45;;;3.10;;
15295;SDS011;7749;49.964;7.890;2023-07-22T12:25:21;3.65;;;2.90;;
15295;SDS011;7749;49.964;7.890;2023-07-22T12:27:48;4.70;;;3.05;;
15295;SDS011;7749;49.964;7.890;2023-07-22T12:30:17;3.10;;;2.60;;
15295;SDS011;7749;49.964;7.890;2023-07-22T12:32:46;6.15;;;2.88;;
15295;SDS011;7749;49.964;7.890;2023-07-22T12:35:15;3.30;;;3.00;;
15295;SDS011;7749;49.964;7.890;2023-07-22T12:37:43;3.85;;;3.08;;
15295;SDS011;7749;49.964;7.890;2023-07-22T12:40:10;4.13;;;3.08;;
15295;SDS011;7749;49.964;7.890;2023-07-22T12:42:39;3.80;;;2.92;;
15295;SDS011;7749;49.964;7.890;2023-07-22T12:45:08;4.13;;;3.05;;
15295;SDS011;7749;49.964;7.890;2023-07-22T12:47:36;3.97;;;3.10;;
15295;SDS011;7749;49.964;7.890;2023-07-22T12:50:07;3.63;;;3.20;;
15295;SDS011;7749;49.964;7.890;2023-07-22T12:52:35;5.97;;;3.20;;
15295;SDS011;7749;49.964;7.890;2023-07-22T12:55:03;5.70;;;3.17;;
15295;SDS011;7749;49.964;7.890;2023-07-22T12:57:31;3.17;;;2.92;;
15295;SDS011;7749;49.964;7.890;2023-07-22T13:00:01;3.40;;;3.10;;
15295;SDS011;7749;49.964;7.890;2023-07-22T13:02:33;4.28;;;2.92;;
15295;SDS011;7749;49.964;7.890;2023-07-22T13:05:00;4.43;;;3.00;;
15295;SDS011;7749;49.964;7.890;2023-07-22T13:07:28;3.90;;;2.92;;
15295;SDS011;7749;49.964;7.890;2023-07-22T13:09:56;3.97;;;3.13;;
15295;SDS011;7749;49.964;7.890;2023-07-22T13:12:25;4.22;;;3.08;;
15295;SDS011;7749;49.964;7.890;2023-07-22T13:14:52;3.47;;;3.17;;
15295;SDS011;7749;49.964;7.890;2023-07-22T13:17:20;4.20;;;2.97;;
15295;SDS011;7749;49.964;7.890;2023-07-22T13:19:47;4.03;;;3.20;;
15295;SDS011;7749;49.964;7.890;2023-07-22T13:22:15;3.83;;;3.53;;
15295;SDS011;7749;49.964;7.890;2023-07-22T13:24:42;3.50;;;3.20;;
15295;SDS011;7749;49.964;7.890;2023-07-22T13:27:10;4.03;;;3.63;;
15295;SDS011;7749;49.964;7.890;2023-07-22T13:29:39;3.63;;;3.30;;
15295;SDS011;7749;49.964;7.890;2023-07-22T13:32:06;3.50;;;3.05;;
15295;SDS011;7749;49.964;7.890;2023-07-22T13:34:34;5.78;;;3.25;;
15295;SDS011;7749;49.964;7.890;2023-07-22T13:37:02;3.50;;;3.20;;
15295;SDS011;7749;49.964;7.890;2023-07-22T13:39:29;3.38;;;2.80;;
15295;SDS011;7749;49.964;7.890;2023-07-22T13:41:57;4.05;;;3.60;;
15295;SDS011;7749;49.964;7.890;2023-07-22T13:44:24;3.58;;;3.25;;
15295;SDS011;7749;49.964;7.890;2023-07-22T13:46:52;3.10;;;2.80;;
15295;SDS011;7749;49.964;7.890;2023-07-22T13:49:19;3.47;;;3.05;;
15295;SDS011;7749;49.964;7.890;2023-07-22T13:51:47;3.25;;;2.95;;
15295;SDS011;7749;49.964;7.890;2023-07-22T13:54:15;4.78;;;3.35;;
15295;SDS011;7749;49.964;7.890;2023-07-22T13:56:43;3.42;;;3.13;;
15295;SDS011;7749;49.964;7.890;2023-07-22T13:59:12;3.10;;;2.72;;
15295;SDS011;7749;49.964;7.890;2023-07-22T14:01:40;3.17;;;2.90;;
15295;SDS011;7749;49.964;7.890;2023-07-22T14:04:08;3.30;;;3.05;;
15295;SDS011;7749;49.964;7.890;2023-07-22T14:06:35;4.90;;;3.03;;
15295;SDS011;7749;49.964;7.890;2023-07-22T14:09:03;3.70;;;3.05;;
15295;SDS011;7749;49.964;7.890;2023-07-22T14:11:30;6.22;;;3.60;;
15295;SDS011;7749;49.964;7.890;2023-07-22T14:13:58;3.47;;;3.17;;
15295;SDS011;7749;49.964;7.890;2023-07-22T14:16:25;3.55;;;3.25;;
15295;SDS011;7749;49.964;7.890;2023-07-22T14:18:53;4.65;;;3.20;;
15295;SDS011;7749;49.964;7.890;2023-07-22T14:21:21;3.30;;;2.90;;
15295;SDS011;7749;49.964;7.890;2023-07-22T14:23:49;4.55;;;3.10;;
15295;SDS011;7749;49.964;7.890;2023-07-22T14:26:16;3.67;;;3.20;;
15295;SDS011;7749;49.964;7.890;2023-07-22T14:28:44;3.50;;;3.20;;
15295;SDS011;7749;49.964;7.890;2023-07-22T14:33:55;7.35;;;3.20;;
15295;SDS011;7749;49.964;7.890;2023-07-22T14:36:23;3.03;;;2.83;;
15295;SDS011;7749;49.964;7.890;2023-07-22T14:38:51;4.30;;;3.30;;
15295;SDS011;7749;49.964;7.890;2023-07-22T14:41:18;3.38;;;3.10;;
15295;SDS011;7749;49.964;7.890;2023-07-22T14:43:46;3.63;;;3.28;;
15295;SDS011;7749;49.964;7.890;2023-07-22T14:46:13;3.55;;;3.15;;
15295;SDS011;7749;49.964;7.890;2023-07-22T14:48:41;4.68;;;3.25;;
15295;SDS011;7749;49.964;7.890;2023-07-22T14:51:09;4.80;;;3.22;;
15295;SDS011;7749;49.964;7.890;2023-07-22T14:53:37;3.85;;;3.38;;
15295;SDS011;7749;49.964;7.890;2023-07-22T14:56:04;5.03;;;3.45;;
15295;SDS011;7749;49.964;7.890;2023-07-22T14:58:34;4.07;;;3.70;;
15295;SDS011;7749;49.964;7.890;2023-07-22T15:01:01;4.55;;;3.30;;
15295;SDS011;7749;49.964;7.890;2023-07-22T15:03:30;3.40;;;3.10;;
15295;SDS011;7749;49.964;7.890;2023-07-22T15:05:57;3.50;;;3.05;;
15295;SDS011;7749;49.964;7.890;2023-07-22T15:08:24;4.00;;;3.20;;
15295;SDS011;7749;49.964;7.890;2023-07-22T15:10:52;4.32;;;3.28;;
15295;SDS011;7749;49.964;7.890;2023-07-22T15:13:20;4.38;;;3.97;;